createdAt,value
2017-12-20T00:01:43.467Z,5.86
2017-12-20T00:04:15.552Z,5.78
2017-12-20T00:06:47.433Z,5.78
2017-12-20T00:09:15.555Z,5.84
2017-12-20T00:11:47.825Z,5.82
2017-12-20T00:14:19.896Z,5.82
2017-12-20T00:16:46.890Z,5.83
2017-12-20T00:19:14.585Z,5.82
2017-12-20T00:21:47.017Z,5.83
2017-12-20T00:24:14.967Z,5.85
2017-12-20T00:26:41.863Z,5.87
2017-12-20T00:29:08.899Z,5.81
2017-12-20T00:31:35.803Z,5.77
2017-12-20T00:34:02.825Z,5.82
2017-12-20T00:36:35.127Z,5.84
2017-12-20T00:39:07.551Z,5.87
2017-12-20T00:41:37.036Z,5.87
2017-12-20T00:44:04.383Z,5.84
2017-12-20T00:46:34.559Z,5.85
2017-12-20T00:49:04.138Z,5.83
2017-12-20T00:51:33.520Z,5.87
2017-12-20T00:54:04.035Z,5.80
2017-12-20T00:56:33.406Z,5.81
2017-12-20T00:59:05.619Z,5.81
2017-12-20T01:01:32.573Z,5.84
2017-12-20T01:03:59.548Z,5.88
2017-12-20T01:06:28.815Z,5.88
2017-12-20T01:09:00.969Z,5.82
2017-12-20T01:11:27.846Z,5.84
2017-12-20T01:13:56.481Z,5.89
2017-12-20T01:16:23.809Z,5.88
2017-12-20T01:18:56.616Z,5.88
2017-12-20T01:21:23.930Z,5.91
2017-12-20T01:23:56.807Z,5.92
2017-12-20T01:26:24.012Z,5.90
2017-12-20T01:28:56.064Z,5.92
2017-12-20T01:31:23.358Z,5.90
2017-12-20T01:33:55.495Z,5.91
2017-12-20T01:36:22.672Z,5.92
2017-12-20T01:38:49.609Z,5.91
2017-12-20T01:41:16.612Z,5.93
2017-12-20T01:43:49.484Z,5.93
2017-12-20T01:46:16.316Z,5.93
2017-12-20T01:48:43.866Z,5.97
2017-12-20T01:51:10.756Z,5.95
2017-12-20T01:53:38.737Z,5.94
2017-12-20T01:56:11.156Z,5.93
2017-12-20T01:58:38.102Z,5.91
2017-12-20T02:01:05.698Z,5.91
2017-12-20T02:03:32.577Z,5.88
2017-12-20T02:05:59.723Z,5.90
2017-12-20T02:08:26.668Z,5.93
2017-12-20T02:10:54.865Z,5.88
2017-12-20T02:13:24.939Z,5.88
2017-12-20T02:15:57.630Z,5.87
2017-12-20T02:18:25.614Z,5.87
2017-12-20T02:20:52.714Z,5.91
2017-12-20T02:23:20.836Z,5.95
2017-12-20T02:25:48.484Z,5.89
2017-12-20T02:28:18.389Z,5.93
2017-12-20T02:30:51.366Z,5.93
2017-12-20T02:33:32.109Z,5.91
2017-12-20T02:35:58.973Z,5.94
2017-12-20T02:38:38.207Z,5.96
2017-12-20T02:41:13.051Z,5.96
2017-12-20T02:43:41.017Z,5.93
2017-12-20T02:46:08.870Z,5.97
2017-12-20T02:48:35.729Z,5.98
2017-12-20T02:51:03.656Z,5.97
2017-12-20T02:53:35.732Z,5.93
2017-12-20T02:56:09.282Z,5.95
2017-12-20T02:58:36.144Z,5.99
2017-12-20T03:01:09.030Z,6.00
2017-12-20T03:03:36.625Z,6.01
2017-12-20T03:06:03.505Z,6.00
2017-12-20T03:08:35.617Z,6.01
2017-12-20T03:11:07.845Z,5.98
2017-12-20T03:13:35.682Z,5.95
2017-12-20T03:16:02.901Z,6.01
2017-12-20T03:18:35.874Z,5.99
2017-12-20T03:21:02.968Z,5.99
2017-12-20T03:23:30.529Z,6.01
2017-12-20T03:25:57.754Z,6.00
2017-12-20T03:28:24.543Z,5.97
2017-12-20T03:30:51.394Z,5.96
2017-12-20T03:33:19.438Z,5.97
2017-12-20T03:35:47.110Z,6.01
2017-12-20T03:38:14.466Z,5.96
2017-12-20T03:40:43.232Z,5.97
2017-12-20T03:43:10.134Z,6.00
2017-12-20T03:45:37.308Z,6.01
2017-12-20T03:48:07.431Z,6.00
2017-12-20T03:50:34.527Z,5.98
2017-12-20T03:53:02.262Z,6.00
2017-12-20T03:55:29.125Z,6.02
2017-12-20T03:58:01.260Z,6.01
2017-12-20T04:00:34.520Z,6.03
2017-12-20T04:03:01.498Z,6.03
2017-12-20T04:05:28.372Z,6.02
2017-12-20T04:07:55.586Z,6.04
2017-12-20T04:10:24.491Z,6.04
2017-12-20T04:12:51.641Z,6.03
2017-12-20T04:15:19.522Z,6.04
2017-12-20T04:17:47.197Z,6.05
2017-12-20T04:20:19.280Z,6.06
2017-12-20T04:22:47.279Z,6.01
2017-12-20T04:25:14.901Z,6.02
2017-12-20T04:27:42.639Z,6.03
2017-12-20T04:30:09.563Z,6.07
2017-12-20T04:32:36.463Z,6.00
2017-12-20T04:35:04.112Z,6.03
2017-12-20T04:37:36.143Z,6.02
2017-12-20T04:40:03.114Z,6.04
2017-12-20T04:42:30.080Z,6.01
2017-12-20T04:44:56.945Z,6.00
2017-12-20T04:47:24.452Z,6.01
2017-12-20T04:49:51.746Z,6.01
2017-12-20T04:52:24.946Z,6.02
2017-12-20T04:54:52.143Z,6.03
2017-12-20T04:57:24.540Z,6.05
2017-12-20T04:59:56.567Z,6.07
2017-12-20T05:02:23.524Z,6.08
2017-12-20T05:04:51.182Z,6.09
2017-12-20T05:07:19.225Z,6.06
2017-12-20T05:09:46.810Z,6.07
2017-12-20T05:12:15.329Z,6.09
2017-12-20T05:14:42.142Z,6.10
2017-12-20T05:17:10.722Z,6.10
2017-12-20T05:19:37.959Z,6.12
2017-12-20T05:22:05.712Z,6.11
2017-12-20T05:24:37.737Z,6.10
2017-12-20T05:27:04.951Z,6.11
2017-12-20T05:29:31.824Z,6.12
2017-12-20T05:31:58.992Z,6.10
2017-12-20T05:34:25.871Z,6.11
2017-12-20T05:36:53.419Z,6.12
2017-12-20T05:39:20.995Z,6.14
2017-12-20T05:41:47.885Z,6.13
2017-12-20T05:44:15.553Z,6.12
2017-12-20T05:46:42.418Z,6.15
2017-12-20T05:49:14.461Z,6.14
2017-12-20T05:51:41.751Z,6.13
2017-12-20T05:54:08.619Z,6.11
2017-12-20T05:56:36.014Z,6.13
2017-12-20T05:59:08.836Z,6.14
2017-12-20T06:01:35.747Z,6.14
2017-12-20T06:04:06.091Z,6.14
2017-12-20T06:06:33.031Z,6.16
2017-12-20T06:08:59.994Z,6.14
2017-12-20T06:11:26.795Z,6.15
2017-12-20T06:13:55.610Z,6.15
2017-12-20T06:16:22.530Z,6.13
2017-12-20T06:18:49.608Z,6.14
2017-12-20T06:21:18.626Z,6.15
2017-12-20T06:23:46.195Z,6.17
2017-12-20T06:26:13.516Z,6.17
2017-12-20T06:28:40.401Z,6.17
2017-12-20T06:31:07.320Z,6.15
2017-12-20T06:33:34.923Z,6.13
2017-12-20T06:36:01.821Z,6.14
2017-12-20T06:38:29.113Z,6.16
2017-12-20T06:40:56.273Z,6.18
2017-12-20T06:43:23.414Z,6.17
2017-12-20T06:45:52.193Z,6.18
2017-12-20T06:48:19.196Z,6.18
2017-12-20T06:50:46.505Z,6.19
2017-12-20T06:53:13.762Z,6.18
2017-12-20T06:55:40.752Z,6.20
2017-12-20T06:58:08.726Z,6.20
2017-12-20T07:00:35.752Z,6.20
2017-12-20T07:03:07.908Z,6.21
2017-12-20T07:05:34.783Z,6.21
2017-12-20T07:08:01.660Z,6.21
2017-12-20T07:10:28.696Z,6.23
2017-12-20T07:12:56.426Z,6.21
2017-12-20T07:15:30.372Z,6.24
2017-12-20T07:17:57.825Z,6.21
2017-12-20T07:20:27.824Z,6.22
2017-12-20T07:22:55.592Z,6.24
2017-12-20T07:25:22.400Z,6.24
2017-12-20T07:27:49.280Z,6.23
2017-12-20T07:30:16.081Z,6.24
2017-12-20T07:32:43.296Z,6.24
2017-12-20T07:35:10.230Z,6.25
2017-12-20T07:37:37.153Z,6.25
2017-12-20T07:40:06.026Z,6.24
2017-12-20T07:42:33.419Z,6.24
2017-12-20T07:45:00.674Z,6.26
2017-12-20T07:47:27.525Z,6.26
2017-12-20T07:49:54.406Z,6.25
2017-12-20T07:52:21.285Z,6.28
2017-12-20T07:54:55.557Z,6.28
2017-12-20T07:57:22.750Z,6.31
2017-12-20T07:59:54.833Z,6.30
2017-12-20T08:02:21.712Z,6.30
2017-12-20T08:04:48.553Z,6.30
2017-12-20T08:07:15.422Z,6.30
2017-12-20T08:09:42.276Z,6.28
2017-12-20T08:12:09.179Z,6.32
2017-12-20T08:14:41.454Z,6.31
2017-12-20T08:17:14.282Z,6.35
2017-12-20T08:19:41.171Z,6.35
2017-12-20T08:22:08.051Z,6.35
2017-12-20T08:24:34.836Z,6.35
2017-12-20T08:27:02.164Z,6.38
2017-12-20T08:29:34.625Z,6.40
2017-12-20T08:32:04.820Z,6.38
2017-12-20T08:34:31.670Z,6.40
2017-12-20T08:37:03.885Z,6.42
2017-12-20T08:39:31.048Z,6.41
2017-12-20T08:41:57.835Z,6.45
2017-12-20T08:44:24.653Z,6.43
2017-12-20T08:46:51.538Z,6.44
2017-12-20T08:49:19.148Z,6.47
2017-12-20T08:51:46.213Z,6.48
2017-12-20T08:54:14.004Z,6.48
2017-12-20T08:56:41.144Z,6.48
2017-12-20T08:59:08.754Z,6.52
2017-12-20T09:01:41.348Z,6.50
2017-12-20T09:04:08.685Z,6.51
2017-12-20T09:06:36.296Z,6.52
2017-12-20T09:09:04.219Z,6.54
2017-12-20T09:11:31.064Z,6.54
2017-12-20T09:14:03.592Z,6.56
2017-12-20T09:16:35.617Z,6.57
2017-12-20T09:19:02.965Z,6.54
2017-12-20T09:21:30.928Z,6.58
2017-12-20T09:23:58.088Z,6.58
2017-12-20T09:26:25.032Z,6.61
2017-12-20T09:28:51.902Z,6.58
2017-12-20T09:31:18.767Z,6.60
2017-12-20T09:33:45.741Z,6.62
2017-12-20T09:36:12.686Z,6.61
2017-12-20T09:38:44.664Z,6.68
2017-12-20T09:41:11.969Z,6.70
2017-12-20T09:43:39.809Z,6.74
2017-12-20T09:46:06.759Z,6.72
2017-12-20T09:48:38.976Z,6.72
2017-12-20T09:51:11.877Z,6.72
2017-12-20T09:53:40.003Z,6.74
2017-12-20T09:56:07.555Z,6.77
2017-12-20T09:58:40.269Z,6.76
2017-12-20T10:01:07.809Z,6.78
2017-12-20T10:03:34.809Z,6.77
2017-12-20T10:06:02.571Z,6.84
2017-12-20T10:08:34.657Z,6.84
2017-12-20T10:11:06.593Z,6.81
2017-12-20T10:13:33.418Z,6.85
2017-12-20T10:16:01.073Z,6.88
2017-12-20T10:18:33.041Z,6.85
2017-12-20T10:21:05.122Z,6.86
2017-12-20T10:23:32.342Z,6.85
2017-12-20T10:25:59.161Z,6.88
2017-12-20T10:28:26.120Z,6.89
2017-12-20T10:30:52.993Z,6.93
2017-12-20T10:33:25.047Z,6.91
2017-12-20T10:35:51.889Z,6.91
2017-12-20T10:38:18.732Z,6.94
2017-12-20T10:40:50.711Z,6.95
2017-12-20T10:43:17.740Z,6.92
2017-12-20T10:45:44.903Z,7.04
2017-12-20T10:48:11.862Z,7.00
2017-12-20T10:50:44.371Z,7.03
2017-12-20T10:53:11.265Z,7.03
2017-12-20T10:55:38.243Z,7.01
2017-12-20T10:58:05.305Z,7.06
2017-12-20T11:00:32.302Z,7.07
2017-12-20T11:02:59.316Z,7.08
2017-12-20T11:05:26.108Z,7.11
2017-12-20T11:07:52.936Z,7.15
2017-12-20T11:10:19.775Z,7.04
2017-12-20T11:12:46.608Z,7.11
2017-12-20T11:15:13.462Z,7.14
2017-12-20T11:17:40.302Z,7.16
2017-12-20T11:20:07.133Z,7.12
2017-12-20T11:22:33.997Z,7.19
2017-12-20T11:25:01.614Z,7.20
2017-12-20T11:27:29.171Z,7.23
2017-12-20T11:29:55.964Z,7.26
2017-12-20T11:32:22.874Z,7.29
2017-12-20T11:34:50.479Z,7.29
2017-12-20T11:37:17.302Z,7.29
2017-12-20T11:39:44.082Z,7.32
2017-12-20T11:42:10.903Z,7.38
2017-12-20T11:44:37.679Z,7.27
2017-12-20T11:47:04.489Z,7.32
2017-12-20T11:49:31.335Z,7.36
2017-12-20T11:51:58.131Z,7.34
2017-12-20T11:54:24.917Z,7.29
2017-12-20T11:56:51.708Z,7.35
2017-12-20T11:59:18.601Z,7.41
2017-12-20T12:01:45.422Z,7.39
2017-12-20T12:04:12.961Z,7.46
2017-12-20T12:06:39.826Z,7.43
2017-12-20T12:09:06.625Z,7.39
2017-12-20T12:11:34.167Z,7.43
2017-12-20T12:14:00.960Z,7.49
2017-12-20T12:16:27.869Z,7.46
2017-12-20T12:18:54.658Z,7.47
2017-12-20T12:21:21.505Z,7.51
2017-12-20T12:23:48.320Z,7.52
2017-12-20T12:26:15.125Z,7.51
2017-12-20T12:28:41.939Z,7.52
2017-12-20T12:31:08.776Z,7.60
2017-12-20T12:33:35.582Z,7.55
2017-12-20T12:36:02.454Z,7.55
2017-12-20T12:38:29.268Z,7.58
2017-12-20T12:40:56.834Z,7.57
2017-12-20T12:43:23.630Z,7.55
2017-12-20T12:45:50.482Z,7.56
2017-12-20T12:48:17.340Z,7.54
2017-12-20T12:50:44.137Z,7.60
2017-12-20T12:53:11.021Z,7.54
2017-12-20T12:55:38.295Z,7.59
2017-12-20T12:58:05.135Z,7.57
2017-12-20T13:00:31.986Z,7.59
2017-12-20T13:02:58.810Z,7.55
2017-12-20T13:05:25.642Z,7.55
2017-12-20T13:07:52.491Z,7.60
2017-12-20T13:10:19.293Z,7.57
2017-12-20T13:12:46.924Z,7.53
2017-12-20T13:15:13.698Z,7.50
2017-12-20T13:17:40.532Z,7.51
2017-12-20T13:20:07.322Z,7.55
2017-12-20T13:22:34.152Z,7.56
2017-12-20T13:25:00.944Z,7.57
2017-12-20T13:27:27.723Z,7.53
2017-12-20T13:29:55.227Z,7.53
2017-12-20T13:32:22.116Z,7.53
2017-12-20T13:34:48.944Z,7.51
2017-12-20T13:37:15.738Z,7.51
2017-12-20T13:39:42.560Z,7.56
2017-12-20T13:42:09.340Z,7.59
2017-12-20T13:44:36.125Z,7.56
2017-12-20T13:47:02.949Z,7.59
2017-12-20T13:49:29.810Z,7.57
2017-12-20T13:51:56.646Z,7.58
2017-12-20T13:54:24.234Z,7.57
2017-12-20T13:56:51.811Z,7.49
2017-12-20T13:59:20.306Z,7.54
2017-12-20T14:01:47.878Z,7.52
2017-12-20T14:04:14.692Z,7.53
2017-12-20T14:06:41.544Z,7.54
2017-12-20T14:09:08.398Z,7.54
2017-12-20T14:11:35.222Z,7.54
2017-12-20T14:14:02.826Z,7.53
2017-12-20T14:16:29.699Z,7.51
2017-12-20T14:18:56.514Z,7.53
2017-12-20T14:21:23.307Z,7.56
2017-12-20T14:23:50.185Z,7.48
2017-12-20T14:26:16.965Z,7.51
2017-12-20T14:28:43.745Z,7.53
2017-12-20T14:31:10.545Z,7.59
2017-12-20T14:33:37.409Z,7.51
2017-12-20T14:36:04.213Z,7.49
2017-12-20T14:38:30.972Z,7.61
2017-12-20T14:40:57.829Z,7.78
2017-12-20T14:43:24.643Z,7.75
2017-12-20T14:45:51.464Z,7.82
2017-12-20T14:48:18.301Z,7.73
2017-12-20T14:50:45.091Z,7.78
2017-12-20T14:53:11.941Z,7.75
2017-12-20T14:55:38.857Z,7.83
2017-12-20T14:58:05.666Z,7.73
2017-12-20T15:00:32.550Z,7.71
2017-12-20T15:02:59.376Z,7.66
2017-12-20T15:05:26.219Z,7.63
2017-12-20T15:07:53.070Z,7.65
2017-12-20T15:10:19.886Z,7.64
2017-12-20T15:12:47.234Z,7.63
2017-12-20T15:15:14.354Z,7.60
2017-12-20T15:17:41.264Z,7.60
2017-12-20T15:20:08.684Z,7.60
2017-12-20T15:22:37.171Z,7.58
2017-12-20T15:25:04.014Z,7.56
2017-12-20T15:27:30.852Z,7.55
2017-12-20T15:29:57.618Z,7.58
2017-12-20T15:32:24.438Z,7.53
2017-12-20T15:34:51.634Z,7.56
2017-12-20T15:37:18.475Z,7.52
2017-12-20T15:39:45.259Z,7.51
2017-12-20T15:42:12.200Z,7.54
2017-12-20T15:44:39.750Z,7.52
2017-12-20T15:47:07.274Z,7.49
2017-12-20T15:49:34.074Z,7.52
2017-12-20T15:52:00.846Z,7.51
2017-12-20T15:54:28.436Z,7.54
2017-12-20T15:56:55.975Z,7.48
2017-12-20T15:59:23.163Z,7.50
2017-12-20T16:01:50.748Z,7.51
2017-12-20T16:04:18.294Z,7.51
2017-12-20T16:06:45.069Z,7.52
2017-12-20T16:09:11.921Z,7.50
2017-12-20T16:11:38.718Z,7.52
2017-12-20T16:14:06.290Z,7.54
2017-12-20T16:16:33.137Z,7.51
2017-12-20T16:18:59.952Z,7.53
2017-12-20T16:21:26.788Z,7.48
2017-12-20T16:23:54.344Z,7.44
2017-12-20T16:26:21.161Z,7.48
2017-12-20T16:28:48.000Z,7.53
2017-12-20T16:31:14.844Z,7.52
2017-12-20T16:33:42.477Z,7.48
2017-12-20T16:36:09.282Z,7.51
2017-12-20T16:38:36.053Z,7.50
2017-12-20T16:41:02.964Z,7.50
2017-12-20T16:43:29.802Z,7.47
2017-12-20T16:45:56.613Z,7.49
2017-12-20T16:48:24.170Z,7.49
2017-12-20T16:50:50.949Z,7.48
2017-12-20T16:53:35.894Z,7.45
2017-12-20T16:56:03.634Z,7.47
2017-12-20T16:58:30.479Z,7.46
2017-12-20T17:00:57.321Z,7.51
2017-12-20T17:03:24.191Z,7.48
2017-12-20T17:05:50.985Z,7.50
2017-12-20T17:08:17.791Z,7.53
2017-12-20T17:10:44.609Z,7.51
2017-12-20T17:13:11.406Z,7.52
2017-12-20T17:15:38.358Z,7.50
2017-12-20T17:18:05.188Z,7.50
2017-12-20T17:20:32.010Z,7.50
2017-12-20T17:22:58.845Z,7.49
2017-12-20T17:25:25.628Z,7.48
2017-12-20T17:27:52.441Z,7.47
2017-12-20T17:30:19.288Z,7.48
2017-12-20T17:32:46.126Z,7.47
2017-12-20T17:35:13.659Z,7.49
2017-12-20T17:37:40.480Z,7.48
2017-12-20T17:40:08.138Z,7.48
2017-12-20T17:42:34.950Z,7.48
2017-12-20T17:45:01.772Z,7.45
2017-12-20T17:47:29.355Z,7.49
2017-12-20T17:49:57.802Z,7.50
2017-12-20T17:52:24.610Z,7.50
2017-12-20T17:54:52.164Z,7.51
2017-12-20T17:57:19.007Z,7.51
2017-12-20T17:59:45.872Z,7.46
2017-12-20T18:02:12.840Z,7.52
2017-12-20T18:04:39.840Z,7.54
2017-12-20T18:07:07.379Z,7.49
2017-12-20T18:09:34.225Z,7.51
2017-12-20T18:12:01.041Z,7.46
2017-12-20T18:14:28.594Z,7.49
2017-12-20T18:16:55.923Z,7.50
2017-12-20T18:19:22.756Z,7.52
2017-12-20T18:21:50.267Z,7.47
2017-12-20T18:24:17.168Z,7.50
2017-12-20T18:26:44.040Z,7.54
2017-12-20T18:29:11.554Z,7.52
2017-12-20T18:31:38.396Z,7.48
2017-12-20T18:34:06.072Z,7.49
2017-12-20T18:36:33.731Z,7.48
2017-12-20T18:39:00.573Z,7.52
2017-12-20T18:41:27.427Z,7.54
2017-12-20T18:43:54.285Z,7.49
2017-12-20T18:46:22.850Z,7.52
2017-12-20T18:48:50.064Z,7.56
2017-12-20T18:51:17.099Z,7.55
2017-12-20T18:53:47.401Z,7.49
2017-12-20T18:58:55.087Z,7.50
2017-12-20T19:04:07.071Z,7.52
2017-12-20T19:06:35.848Z,7.56
2017-12-20T21:14:01.275Z,7.57
2017-12-20T21:16:29.030Z,7.54
2017-12-20T21:18:56.037Z,7.59
2017-12-20T21:21:24.101Z,7.58
2017-12-20T21:23:53.112Z,7.60
2017-12-20T21:26:20.153Z,7.59
2017-12-20T21:28:48.152Z,7.60
2017-12-20T21:31:16.109Z,7.62
2017-12-20T21:33:43.098Z,7.62
2017-12-20T21:36:29.295Z,7.62
2017-12-20T21:38:59.245Z,7.62
2017-12-20T21:41:26.225Z,7.66
2017-12-20T21:43:53.472Z,7.63
2017-12-20T21:46:20.461Z,7.66
2017-12-20T21:48:47.475Z,7.64
2017-12-20T21:51:15.253Z,7.69
2017-12-20T21:53:42.243Z,7.65
2017-12-20T21:56:12.483Z,7.65
2017-12-20T21:58:39.396Z,7.66
2017-12-20T22:01:08.138Z,7.71
2017-12-20T22:03:35.124Z,7.65
2017-12-20T22:06:02.070Z,7.71
2017-12-20T22:08:28.951Z,7.63
2017-12-20T22:10:55.882Z,7.65
2017-12-20T22:13:22.912Z,7.70
2017-12-20T22:15:49.790Z,7.77
2017-12-20T22:18:17.498Z,7.70
2017-12-20T22:20:44.367Z,7.68
2017-12-20T22:23:11.263Z,7.72
2017-12-20T22:25:39.420Z,7.70
2017-12-20T22:28:06.339Z,7.75
2017-12-20T22:30:33.235Z,7.75
2017-12-20T22:33:00.127Z,7.70
2017-12-20T22:35:27.007Z,7.69
2017-12-20T22:37:53.892Z,7.71
2017-12-20T22:40:21.570Z,7.73
2017-12-20T22:42:48.467Z,7.78
2017-12-20T22:45:15.309Z,7.75
2017-12-20T22:47:42.878Z,7.78
2017-12-20T22:50:10.465Z,7.76
2017-12-20T22:52:37.466Z,7.77
2017-12-20T22:55:04.857Z,7.74
2017-12-20T22:57:31.725Z,7.78
2017-12-20T22:59:58.578Z,7.80
2017-12-20T23:02:25.457Z,7.79
2017-12-20T23:04:52.310Z,7.89
2017-12-20T23:07:19.193Z,7.84
2017-12-20T23:09:46.081Z,7.80
2017-12-20T23:12:12.911Z,7.80
2017-12-20T23:14:39.756Z,7.83
2017-12-20T23:17:06.626Z,7.79
2017-12-20T23:19:33.457Z,7.86
2017-12-20T23:22:00.296Z,7.82
2017-12-20T23:24:27.215Z,7.83
2017-12-20T23:26:54.112Z,7.86
2017-12-20T23:29:20.991Z,7.85
2017-12-20T23:31:49.293Z,7.83
2017-12-20T23:34:18.584Z,7.82
2017-12-20T23:36:46.346Z,7.82
2017-12-20T23:39:13.303Z,7.85
2017-12-20T23:41:40.396Z,7.85
2017-12-20T23:44:10.362Z,7.86
2017-12-20T23:46:37.561Z,7.84
2017-12-20T23:49:07.322Z,7.90
2017-12-20T23:51:34.444Z,7.87
2017-12-20T23:54:02.181Z,7.87
2017-12-20T23:56:30.035Z,7.90
2017-12-20T23:58:57.954Z,7.93
